createdAt,value
2016-09-21T03:01:02.749Z,0
2016-09-21T03:01:28.321Z,0
2016-09-21T03:01:53.897Z,0
2016-09-21T03:02:19.489Z,0
2016-09-21T03:02:45.353Z,0
2016-09-21T03:03:10.913Z,0
2016-09-21T03:03:36.448Z,0
2016-09-21T03:04:01.993Z,0
2016-09-21T03:04:27.537Z,0
2016-09-21T03:04:53.093Z,0
2016-09-21T03:05:18.853Z,0
2016-09-21T03:05:44.413Z,0
2016-09-21T03:06:09.981Z,0
2016-09-21T03:06:35.625Z,0
2016-09-21T03:07:01.183Z,0
2016-09-21T03:07:26.751Z,0
2016-09-21T03:07:52.329Z,0
2016-09-21T03:08:17.883Z,0
2016-09-21T03:08:43.464Z,0
2016-09-21T03:09:09.029Z,0
2016-09-21T03:09:34.589Z,0
2016-09-21T03:10:48.017Z,0
2016-09-21T03:11:13.632Z,0
2016-09-21T03:11:39.373Z,0
2016-09-21T03:12:05.053Z,0
2016-09-21T03:12:30.613Z,0
2016-09-21T03:12:56.158Z,0
2016-09-21T03:13:21.789Z,0
2016-09-21T03:13:47.349Z,0
2016-09-21T03:14:12.914Z,0
2016-09-21T03:14:38.472Z,0
2016-09-21T03:15:04.225Z,0
2016-09-21T03:15:29.759Z,0
2016-09-21T03:15:55.293Z,0
2016-09-21T03:16:20.828Z,0
2016-09-21T03:16:46.377Z,0
2016-09-21T03:17:11.925Z,0
2016-09-21T03:17:37.473Z,0
2016-09-21T03:18:03.018Z,0
2016-09-21T03:18:28.553Z,0
2016-09-21T03:18:54.100Z,0
2016-09-21T03:19:19.681Z,0
2016-09-21T03:19:45.247Z,0
2016-09-21T03:20:10.818Z,0
2016-09-21T03:20:36.384Z,0
2016-09-21T03:21:01.943Z,0
2016-09-21T03:21:27.522Z,0
2016-09-21T03:21:53.097Z,0
2016-09-21T03:22:18.724Z,0
2016-09-21T03:22:44.277Z,0
2016-09-21T03:23:09.847Z,0
2016-09-21T03:23:35.405Z,0
2016-09-21T03:24:00.951Z,0
2016-09-21T03:24:26.553Z,0
2016-09-21T03:24:52.125Z,0
2016-09-21T03:25:17.689Z,0
2016-09-21T03:25:43.246Z,0
2016-09-21T03:26:08.785Z,0
2016-09-21T03:26:34.339Z,0
2016-09-21T03:26:59.921Z,0
2016-09-21T03:27:25.478Z,0
2016-09-21T03:27:51.029Z,0
2016-09-21T03:28:16.579Z,0
2016-09-21T03:28:42.124Z,0
2016-09-21T03:29:07.771Z,0
2016-09-21T03:29:33.350Z,0
2016-09-21T03:29:59.784Z,0
2016-09-21T03:30:25.337Z,0
2016-09-21T03:30:51.785Z,0
2016-09-21T03:31:17.339Z,0
2016-09-21T03:31:42.882Z,0
2016-09-21T03:32:51.325Z,0
2016-09-21T03:33:16.913Z,0
2016-09-21T03:33:42.622Z,0
2016-09-21T03:34:08.160Z,0
2016-09-21T03:34:33.713Z,0
2016-09-21T03:34:59.267Z,0
2016-09-21T03:35:24.820Z,0
2016-09-21T03:35:50.409Z,0
2016-09-21T03:36:15.968Z,0
2016-09-21T03:36:41.510Z,0
2016-09-21T03:37:07.066Z,0
2016-09-21T03:37:32.661Z,0
2016-09-21T03:37:58.287Z,0
2016-09-21T03:38:23.876Z,0
2016-09-21T03:38:49.409Z,0
2016-09-21T03:39:14.969Z,0
2016-09-21T03:39:40.548Z,0
2016-09-21T03:40:06.165Z,0
2016-09-21T03:40:31.721Z,0
2016-09-21T03:40:57.293Z,0
2016-09-21T03:41:22.842Z,0
2016-09-21T03:41:48.402Z,0
2016-09-21T03:42:13.987Z,0
2016-09-21T03:42:39.544Z,0
2016-09-21T03:43:05.107Z,0
2016-09-21T03:43:30.682Z,0
2016-09-21T03:43:56.274Z,0
2016-09-21T03:44:21.840Z,0
2016-09-21T03:44:47.405Z,0
2016-09-21T03:45:13.009Z,0
2016-09-21T03:45:38.566Z,0
2016-09-21T03:46:04.131Z,0
2016-09-21T03:46:29.688Z,0
2016-09-21T03:46:55.265Z,0
2016-09-21T03:47:20.821Z,0
2016-09-21T03:47:46.371Z,0
2016-09-21T03:48:11.941Z,0
2016-09-21T03:48:37.512Z,0
2016-09-21T03:49:03.052Z,0
2016-09-21T03:49:28.664Z,0
2016-09-21T03:49:54.238Z,0
2016-09-21T03:50:19.787Z,0
2016-09-21T03:50:45.352Z,0
2016-09-21T03:51:11.031Z,0
2016-09-21T03:51:36.618Z,0
2016-09-21T03:52:02.166Z,0
2016-09-21T03:52:27.821Z,0
2016-09-21T03:52:53.444Z,0
2016-09-21T03:53:19.002Z,0
2016-09-21T03:53:45.126Z,0
2016-09-21T03:54:10.682Z,0
2016-09-21T03:54:36.229Z,0
2016-09-21T03:55:01.923Z,0
2016-09-21T03:55:27.474Z,0
2016-09-21T03:55:53.044Z,0
2016-09-21T03:56:18.617Z,0
2016-09-21T03:56:44.303Z,0
2016-09-21T03:57:09.856Z,0
2016-09-21T03:57:35.420Z,0
2016-09-21T03:58:00.957Z,0
2016-09-21T03:58:26.504Z,0
2016-09-21T03:58:52.067Z,0
2016-09-21T03:59:17.642Z,0
2016-09-21T03:59:43.159Z,0
2016-09-21T04:00:08.709Z,0
2016-09-21T04:00:34.260Z,0
2016-09-21T04:00:59.881Z,0
2016-09-21T04:01:25.439Z,0
2016-09-21T04:01:50.990Z,0
2016-09-21T04:02:16.554Z,0
2016-09-21T04:02:42.153Z,0
2016-09-21T04:03:07.731Z,0
2016-09-21T04:03:33.306Z,0
2016-09-21T04:03:58.879Z,0
2016-09-21T04:04:24.447Z,0
2016-09-21T04:04:50.009Z,0
2016-09-21T04:05:15.676Z,0
2016-09-21T04:05:41.258Z,0
2016-09-21T04:06:06.862Z,0
2016-09-21T04:06:32.463Z,0
2016-09-21T04:06:58.032Z,0
2016-09-21T04:07:23.658Z,0
2016-09-21T04:07:49.188Z,0
2016-09-21T04:08:14.748Z,0
2016-09-21T04:08:40.345Z,0
2016-09-21T04:09:05.913Z,0
2016-09-21T04:09:31.450Z,0
2016-09-21T04:09:57.051Z,0
2016-09-21T04:10:22.618Z,0
2016-09-21T04:10:48.169Z,0
2016-09-21T04:11:13.733Z,0
2016-09-21T04:11:39.382Z,0
2016-09-21T04:12:04.949Z,0
2016-09-21T04:12:30.630Z,0
2016-09-21T04:13:44.071Z,0
2016-09-21T04:14:09.628Z,0
2016-09-21T04:14:35.197Z,0
2016-09-21T04:15:00.795Z,0
2016-09-21T04:15:26.412Z,0
2016-09-21T04:15:51.976Z,0
2016-09-21T04:16:17.545Z,0
2016-09-21T04:16:43.145Z,0
2016-09-21T04:17:08.762Z,0
2016-09-21T04:17:34.334Z,0
2016-09-21T04:17:59.891Z,0
2016-09-21T04:18:25.596Z,0
2016-09-21T04:18:51.159Z,0
2016-09-21T04:19:16.760Z,0
2016-09-21T04:19:42.425Z,0
2016-09-21T04:20:07.989Z,0
2016-09-21T04:20:33.641Z,0
2016-09-21T04:20:59.273Z,0
2016-09-21T04:21:24.841Z,0
2016-09-21T04:21:50.409Z,0
2016-09-21T04:22:16.009Z,0
2016-09-21T04:22:41.549Z,0
2016-09-21T04:23:07.096Z,0
2016-09-21T04:23:32.664Z,0
2016-09-21T04:23:58.260Z,0
2016-09-21T04:24:23.834Z,0
2016-09-21T04:24:49.384Z,0
2016-09-21T04:25:14.996Z,0
2016-09-21T04:25:40.555Z,0
2016-09-21T04:26:06.167Z,0
2016-09-21T04:26:31.731Z,0
2016-09-21T04:26:57.297Z,0
2016-09-21T04:27:22.878Z,0
2016-09-21T04:27:48.451Z,0
2016-09-21T04:28:14.014Z,0
2016-09-21T04:28:39.584Z,0
2016-09-21T04:29:05.156Z,0
2016-09-21T04:29:30.728Z,0
2016-09-21T04:29:56.338Z,0
2016-09-21T04:31:04.658Z,0
2016-09-21T04:31:30.202Z,0
2016-09-21T04:31:55.750Z,0
2016-09-21T04:32:21.299Z,0
2016-09-21T04:32:46.854Z,0
2016-09-21T04:33:12.410Z,0
2016-09-21T04:33:37.975Z,0
2016-09-21T04:34:03.520Z,0
2016-09-21T04:34:29.080Z,0
2016-09-21T04:34:54.612Z,0
2016-09-21T04:35:20.157Z,0
2016-09-21T04:35:45.788Z,0
2016-09-21T04:36:11.304Z,0
2016-09-21T04:36:37.003Z,0
2016-09-21T04:37:02.550Z,0
2016-09-21T04:37:28.106Z,0
2016-09-21T04:37:53.656Z,0
2016-09-21T04:38:19.193Z,0
2016-09-21T04:38:44.779Z,0
2016-09-21T04:39:10.538Z,0
2016-09-21T04:39:36.174Z,0
2016-09-21T04:40:01.733Z,0
2016-09-21T04:40:27.274Z,0
2016-09-21T04:40:52.805Z,0
2016-09-21T04:41:18.378Z,0
2016-09-21T04:41:43.997Z,0
2016-09-21T04:42:09.550Z,0
2016-09-21T04:42:35.093Z,0
2016-09-21T04:43:00.647Z,44
2016-09-21T04:43:26.228Z,0
2016-09-21T04:43:51.854Z,0
2016-09-21T04:44:17.501Z,0
2016-09-21T04:44:43.051Z,0
2016-09-21T04:45:08.612Z,0
2016-09-21T04:45:34.266Z,0
2016-09-21T04:45:59.918Z,0
2016-09-21T04:46:25.492Z,0
2016-09-21T04:46:51.106Z,0
2016-09-21T04:47:16.672Z,0
2016-09-21T04:47:42.292Z,0
2016-09-21T04:48:07.893Z,0
2016-09-21T04:48:33.472Z,0
2016-09-21T04:48:59.034Z,0
2016-09-21T04:49:24.610Z,0
2016-09-21T04:49:50.206Z,0
2016-09-21T04:50:15.750Z,0
2016-09-21T04:50:41.322Z,4
2016-09-21T04:51:06.960Z,0
2016-09-21T04:51:32.522Z,0
2016-09-21T04:51:58.073Z,0
2016-09-21T04:52:23.614Z,0
2016-09-21T04:52:49.194Z,0
2016-09-21T04:53:14.734Z,4
2016-09-21T04:53:40.268Z,4
2016-09-21T04:54:05.816Z,4
2016-09-21T04:54:31.424Z,0
2016-09-21T04:54:57.084Z,0
2016-09-21T04:55:22.664Z,0
2016-09-21T04:55:48.247Z,0
2016-09-21T04:56:13.837Z,4
2016-09-21T04:56:39.416Z,4
2016-09-21T04:57:04.984Z,4
2016-09-21T04:57:30.551Z,0
2016-09-21T04:57:56.132Z,0
2016-09-21T04:58:21.686Z,4
2016-09-21T04:58:47.260Z,4
2016-09-21T04:59:12.844Z,4
2016-09-21T04:59:38.408Z,4
2016-09-21T05:00:03.991Z,0
2016-09-21T05:00:29.650Z,0
2016-09-21T05:00:55.233Z,4
2016-09-21T05:01:20.783Z,4
2016-09-21T05:01:46.419Z,4
2016-09-21T05:02:11.974Z,4
2016-09-21T05:02:37.541Z,4
2016-09-21T05:03:03.077Z,4
2016-09-21T05:03:28.635Z,4
2016-09-21T05:03:54.181Z,8
2016-09-21T05:04:19.729Z,4
2016-09-21T05:04:45.290Z,4
2016-09-21T05:05:10.831Z,4
2016-09-21T05:05:36.399Z,4
2016-09-21T05:06:01.935Z,4
2016-09-21T05:06:27.639Z,4
2016-09-21T05:06:53.206Z,4
2016-09-21T05:07:18.867Z,4
2016-09-21T05:07:44.453Z,4
2016-09-21T05:08:10.019Z,4
2016-09-21T05:08:35.657Z,4
2016-09-21T05:09:01.274Z,8
2016-09-21T05:09:26.844Z,8
2016-09-21T05:09:52.410Z,8
2016-09-21T05:10:17.996Z,8
2016-09-21T05:10:43.604Z,8
2016-09-21T05:11:09.177Z,8
2016-09-21T05:11:34.902Z,8
2016-09-21T05:12:00.441Z,8
2016-09-21T05:12:25.992Z,8
2016-09-21T05:12:51.538Z,8
2016-09-21T05:13:17.092Z,8
2016-09-21T05:13:42.617Z,4
2016-09-21T05:14:08.174Z,4
2016-09-21T05:14:33.727Z,8
2016-09-21T05:14:59.341Z,8
2016-09-21T05:15:24.891Z,8
2016-09-21T05:15:50.425Z,8
2016-09-21T05:16:16.013Z,8
2016-09-21T05:16:41.566Z,8
2016-09-21T05:17:07.131Z,8
2016-09-21T05:17:32.692Z,8
2016-09-21T05:18:35.960Z,8
2016-09-21T05:19:01.537Z,8
2016-09-21T05:19:27.114Z,12
2016-09-21T05:19:52.703Z,8
2016-09-21T05:20:18.288Z,12
2016-09-21T05:20:43.873Z,12
2016-09-21T05:21:09.420Z,8
2016-09-21T05:21:34.981Z,12
2016-09-21T05:22:00.552Z,12
2016-09-21T05:22:26.102Z,12
2016-09-21T05:23:49.780Z,12
2016-09-21T05:24:15.342Z,12
2016-09-21T05:24:40.905Z,12
2016-09-21T05:25:06.458Z,16
2016-09-21T05:25:32.013Z,12
2016-09-21T05:25:57.563Z,16
2016-09-21T05:26:23.111Z,16
2016-09-21T05:26:48.671Z,16
2016-09-21T05:27:14.283Z,16
2016-09-21T05:27:39.841Z,20
2016-09-21T05:28:48.130Z,20
2016-09-21T05:29:13.687Z,20
2016-09-21T05:29:39.356Z,20
2016-09-21T05:30:53.021Z,24
2016-09-21T05:31:18.598Z,24
2016-09-21T05:31:44.148Z,28
2016-09-21T05:32:09.767Z,28
2016-09-21T05:32:35.412Z,28
2016-09-21T05:33:00.970Z,32
2016-09-21T05:33:26.522Z,28
2016-09-21T05:33:52.087Z,28
2016-09-21T05:34:17.670Z,32
2016-09-21T05:34:43.241Z,32
2016-09-21T05:35:08.797Z,32
2016-09-21T05:35:34.377Z,36
2016-09-21T05:36:00.026Z,36
2016-09-21T05:36:25.775Z,36
2016-09-21T05:36:51.327Z,36
2016-09-21T05:37:16.887Z,36
2016-09-21T05:37:42.432Z,40
2016-09-21T05:38:07.995Z,40
2016-09-21T05:38:33.584Z,40
2016-09-21T05:38:59.234Z,44
2016-09-21T05:39:24.789Z,44
2016-09-21T05:39:50.342Z,44
2016-09-21T05:40:15.947Z,44
2016-09-21T05:40:41.508Z,44
2016-09-21T05:41:07.057Z,48
2016-09-21T05:41:32.637Z,48
2016-09-21T05:41:58.199Z,48
2016-09-21T05:42:23.786Z,52
2016-09-21T05:42:49.357Z,52
2016-09-21T05:43:14.920Z,52
2016-09-21T05:43:40.479Z,52
2016-09-21T05:44:06.073Z,52
2016-09-21T05:44:31.673Z,56
2016-09-21T05:44:57.231Z,52
2016-09-21T05:45:22.779Z,56
2016-09-21T05:45:48.327Z,56
2016-09-21T05:46:13.875Z,56
2016-09-21T05:46:39.431Z,56
2016-09-21T05:47:04.982Z,56
2016-09-21T05:47:30.539Z,56
2016-09-21T05:47:56.104Z,60
2016-09-21T05:48:21.655Z,60
2016-09-21T05:48:47.295Z,60
2016-09-21T05:49:12.868Z,60
2016-09-21T05:49:38.444Z,60
2016-09-21T05:50:04.093Z,60
2016-09-21T05:50:29.647Z,64
2016-09-21T05:50:55.207Z,60
2016-09-21T05:51:20.830Z,60
2016-09-21T05:51:46.391Z,64
2016-09-21T05:52:11.914Z,64
2016-09-21T05:52:37.473Z,64
2016-09-21T05:53:03.067Z,64
2016-09-21T05:53:28.700Z,64
2016-09-21T05:53:54.267Z,64
2016-09-21T05:54:19.835Z,64
2016-09-21T05:54:45.464Z,64
2016-09-21T05:55:11.120Z,64
2016-09-21T05:55:36.671Z,64
2016-09-21T05:56:02.205Z,68
2016-09-21T05:56:27.872Z,64
2016-09-21T05:56:53.424Z,64
2016-09-21T05:57:18.964Z,68
2016-09-21T05:57:44.494Z,64
2016-09-21T05:58:10.044Z,68
2016-09-21T05:58:35.638Z,68
2016-09-21T05:59:01.194Z,68
2016-09-21T05:59:26.752Z,72
2016-09-21T05:59:52.330Z,72
2016-09-21T06:00:17.916Z,72
2016-09-21T06:01:36.661Z,80
2016-09-21T06:02:02.213Z,80
2016-09-21T06:02:27.779Z,80
2016-09-21T06:02:53.403Z,80
2016-09-21T06:03:19.091Z,84
2016-09-21T06:03:44.661Z,84
2016-09-21T06:04:10.295Z,84
2016-09-21T06:04:35.838Z,88
2016-09-21T06:05:01.393Z,88
2016-09-21T06:05:27.100Z,88
2016-09-21T06:05:52.602Z,92
2016-09-21T06:06:19.044Z,96
2016-09-21T06:06:44.566Z,96
2016-09-21T06:07:10.379Z,96
2016-09-21T06:07:35.929Z,100
2016-09-21T06:08:01.487Z,100
2016-09-21T06:08:27.037Z,104
2016-09-21T06:08:52.613Z,104
2016-09-21T06:09:18.195Z,104
2016-09-21T06:09:43.762Z,100
2016-09-21T06:10:09.375Z,104
2016-09-21T06:10:34.915Z,104
2016-09-21T06:11:00.562Z,104
2016-09-21T06:11:26.253Z,104
2016-09-21T06:11:51.807Z,104
2016-09-21T06:12:17.490Z,100
2016-09-21T06:12:43.057Z,100
2016-09-21T06:13:08.732Z,100
2016-09-21T06:13:34.481Z,104
2016-09-21T06:14:00.021Z,104
2016-09-21T06:14:25.597Z,104
2016-09-21T06:14:51.130Z,104
2016-09-21T06:15:16.755Z,104
2016-09-21T06:15:42.297Z,108
2016-09-21T06:16:07.971Z,104
2016-09-21T06:16:33.581Z,108
2016-09-21T06:16:59.122Z,108
2016-09-21T06:17:24.823Z,108
2016-09-21T06:17:50.394Z,108
2016-09-21T06:18:15.948Z,108
2016-09-21T06:18:41.532Z,108
2016-09-21T06:19:07.331Z,108
2016-09-21T06:19:32.916Z,108
2016-09-21T06:19:58.616Z,108
2016-09-21T06:20:24.177Z,108
2016-09-21T06:20:49.826Z,108
2016-09-21T06:21:15.394Z,112
2016-09-21T06:21:40.965Z,112
2016-09-21T06:22:49.294Z,116
2016-09-21T06:23:14.976Z,116
2016-09-21T06:23:40.527Z,116
2016-09-21T06:24:06.111Z,116
2016-09-21T06:24:31.795Z,116
2016-09-21T06:24:57.467Z,116
2016-09-21T06:25:23.021Z,112
2016-09-21T06:25:48.654Z,112
2016-09-21T06:26:14.354Z,112
2016-09-21T06:26:40.007Z,116
2016-09-21T06:27:05.584Z,112
2016-09-21T06:27:31.134Z,116
2016-09-21T06:28:44.759Z,108
2016-09-21T06:29:10.338Z,108
2016-09-21T06:29:36.000Z,108
2016-09-21T06:30:01.584Z,108
2016-09-21T06:30:27.143Z,108
2016-09-21T06:30:53.368Z,108
2016-09-21T06:31:18.961Z,108
2016-09-21T06:31:44.627Z,108
2016-09-21T06:32:10.195Z,112
2016-09-21T06:32:35.794Z,108
2016-09-21T06:33:01.355Z,112
2016-09-21T06:33:27.031Z,116
2016-09-21T06:33:53.226Z,116
2016-09-21T06:34:18.789Z,120
2016-09-21T06:34:44.337Z,120
2016-09-21T06:35:09.986Z,124
2016-09-21T06:35:35.544Z,120
2016-09-21T06:36:01.078Z,124
2016-09-21T06:36:26.650Z,124
2016-09-21T06:36:52.190Z,124
2016-09-21T06:37:17.754Z,124
2016-09-21T06:37:43.308Z,128
2016-09-21T06:38:08.892Z,124
2016-09-21T06:38:34.458Z,124
2016-09-21T06:39:00.261Z,124
2016-09-21T06:39:25.870Z,124
2016-09-21T06:39:51.416Z,124
2016-09-21T06:40:17.136Z,128
2016-09-21T06:40:42.747Z,128
2016-09-21T06:41:08.306Z,124
2016-09-21T06:41:33.913Z,128
2016-09-21T06:41:59.473Z,128
2016-09-21T06:42:25.105Z,128
2016-09-21T06:42:50.717Z,128
2016-09-21T06:43:16.319Z,128
2016-09-21T06:43:41.978Z,128
2016-09-21T06:44:07.561Z,128
2016-09-21T06:44:33.176Z,128
2016-09-21T06:44:58.751Z,128
2016-09-21T06:45:24.318Z,128
2016-09-21T06:45:49.851Z,132
2016-09-21T06:46:15.421Z,132
2016-09-21T06:46:41.027Z,132
2016-09-21T06:47:06.581Z,132
2016-09-21T06:47:32.325Z,136
2016-09-21T06:47:57.924Z,132
2016-09-21T06:48:23.513Z,132
2016-09-21T06:48:49.150Z,132
2016-09-21T06:49:14.927Z,132
2016-09-21T06:49:40.516Z,132
2016-09-21T06:50:06.191Z,136
2016-09-21T06:50:31.835Z,136
2016-09-21T06:50:57.389Z,136
2016-09-21T06:51:22.966Z,136
2016-09-21T06:51:48.599Z,140
2016-09-21T06:52:14.282Z,144
2016-09-21T06:52:39.909Z,144
2016-09-21T06:53:05.489Z,140
2016-09-21T06:53:31.099Z,144
2016-09-21T06:53:56.797Z,140
2016-09-21T06:55:47.766Z,140
2016-09-21T06:56:13.394Z,144
2016-09-21T06:56:38.995Z,140
2016-09-21T06:57:04.559Z,140
2016-09-21T06:57:30.137Z,144
2016-09-21T06:57:55.715Z,144
2016-09-21T06:58:21.280Z,148
2016-09-21T06:58:47.721Z,152
2016-09-21T06:59:13.290Z,156
2016-09-21T06:59:38.958Z,160
2016-09-21T07:00:04.541Z,160
2016-09-21T07:00:30.235Z,164
2016-09-21T07:00:55.781Z,168
2016-09-21T07:01:21.323Z,168
2016-09-21T07:01:46.876Z,168
2016-09-21T07:02:12.456Z,168
2016-09-21T07:02:38.815Z,168
2016-09-21T07:03:04.502Z,176
2016-09-21T07:03:30.068Z,176
2016-09-21T07:03:55.627Z,176
2016-09-21T07:04:21.198Z,176
2016-09-21T07:04:46.739Z,176
2016-09-21T07:05:12.309Z,176
2016-09-21T07:05:37.860Z,176
2016-09-21T07:06:03.497Z,176
2016-09-21T07:06:29.075Z,176
2016-09-21T07:06:54.699Z,172
2016-09-21T07:07:20.335Z,172
2016-09-21T07:07:45.878Z,168
2016-09-21T07:08:11.519Z,160
2016-09-21T07:08:37.098Z,164
2016-09-21T07:09:02.642Z,160
2016-09-21T07:09:28.208Z,156
2016-09-21T07:09:53.806Z,160
2016-09-21T07:10:20.144Z,156
2016-09-21T07:10:45.031Z,156
2016-09-21T07:11:10.591Z,156
2016-09-21T07:11:36.245Z,156
2016-09-21T07:12:01.794Z,156
2016-09-21T07:12:27.333Z,160
2016-09-21T07:12:52.995Z,156
2016-09-21T07:13:18.650Z,156
2016-09-21T07:13:44.369Z,160
2016-09-21T07:14:09.943Z,160
2016-09-21T07:14:35.563Z,160
2016-09-21T07:15:01.330Z,160
2016-09-21T07:15:26.884Z,160
2016-09-21T07:15:52.456Z,164
2016-09-21T07:16:18.021Z,164
2016-09-21T07:16:43.693Z,164
2016-09-21T07:17:09.275Z,160
2016-09-21T07:17:34.836Z,164
2016-09-21T07:18:00.460Z,164
2016-09-21T07:18:26.034Z,160
2016-09-21T07:18:51.700Z,160
2016-09-21T07:19:17.392Z,164
2016-09-21T07:19:43.003Z,160
2016-09-21T07:20:09.084Z,156
2016-09-21T07:20:34.814Z,156
2016-09-21T07:21:00.405Z,152
2016-09-21T07:21:26.000Z,148
2016-09-21T07:21:51.688Z,148
2016-09-21T07:22:17.271Z,152
2016-09-21T07:22:42.823Z,148
2016-09-21T07:23:08.381Z,148
2016-09-21T07:23:33.952Z,148
2016-09-21T07:23:59.518Z,148
2016-09-21T07:24:25.069Z,148
2016-09-21T07:24:50.631Z,148
2016-09-21T07:25:16.199Z,156
2016-09-21T07:25:41.804Z,160
2016-09-21T07:26:07.495Z,156
2016-09-21T07:26:33.027Z,152
2016-09-21T07:26:58.665Z,156
2016-09-21T07:27:24.218Z,156
2016-09-21T07:27:49.834Z,152
2016-09-21T07:28:15.500Z,152
2016-09-21T07:28:41.078Z,156
2016-09-21T07:29:06.639Z,152
2016-09-21T07:29:32.210Z,156
2016-09-21T07:30:55.962Z,156
2016-09-21T07:31:21.540Z,160
2016-09-21T07:31:47.093Z,160
2016-09-21T07:32:12.745Z,156
2016-09-21T07:32:38.352Z,160
2016-09-21T07:33:03.907Z,160
2016-09-21T07:33:29.509Z,164
2016-09-21T07:33:55.065Z,168
2016-09-21T07:34:20.812Z,168
2016-09-21T07:34:46.438Z,172
2016-09-21T07:35:12.022Z,176
2016-09-21T07:35:37.608Z,176
2016-09-21T07:36:03.287Z,176
2016-09-21T07:36:28.893Z,180
2016-09-21T07:36:54.542Z,184
2016-09-21T07:37:20.111Z,188
2016-09-21T07:37:45.678Z,188
2016-09-21T07:38:11.233Z,192
2016-09-21T07:38:36.940Z,196
2016-09-21T07:39:02.568Z,196
2016-09-21T07:39:28.127Z,204
2016-09-21T07:39:53.740Z,204
2016-09-21T07:40:19.302Z,204
2016-09-21T07:40:44.947Z,208
2016-09-21T07:41:10.591Z,212
2016-09-21T07:41:36.158Z,212
2016-09-21T07:42:01.717Z,216
2016-09-21T07:42:27.267Z,216
2016-09-21T07:42:52.824Z,216
2016-09-21T07:43:18.383Z,216
2016-09-21T07:43:43.992Z,216
2016-09-21T07:44:09.640Z,220
2016-09-21T07:44:35.292Z,220
2016-09-21T07:45:00.917Z,220
2016-09-21T07:45:26.476Z,220
2016-09-21T07:45:52.174Z,220
2016-09-21T07:46:17.786Z,224
2016-09-21T07:46:43.358Z,220
2016-09-21T07:47:08.939Z,220
2016-09-21T07:47:34.508Z,224
2016-09-21T07:48:00.067Z,224
2016-09-21T07:48:25.636Z,220
2016-09-21T07:48:51.230Z,224
2016-09-21T07:49:16.834Z,224
2016-09-21T07:49:42.387Z,224
2016-09-21T07:50:07.969Z,224
2016-09-21T07:50:33.514Z,224
2016-09-21T07:50:59.084Z,224
2016-09-21T07:51:24.702Z,224
2016-09-21T07:51:50.209Z,224
2016-09-21T07:52:15.863Z,224
2016-09-21T07:52:41.444Z,224
2016-09-21T07:53:07.055Z,224
2016-09-21T07:53:32.614Z,224
2016-09-21T07:53:58.177Z,220
2016-09-21T07:54:23.734Z,220
2016-09-21T07:54:49.283Z,220
2016-09-21T07:55:15.159Z,220
2016-09-21T07:55:40.511Z,216
2016-09-21T07:56:06.071Z,216
2016-09-21T07:56:31.633Z,216
2016-09-21T07:56:57.273Z,216
2016-09-21T07:57:22.827Z,212
2016-09-21T07:57:48.492Z,220
2016-09-21T07:58:14.058Z,224
2016-09-21T07:58:39.600Z,236
2016-09-21T07:59:05.248Z,228
2016-09-21T07:59:30.858Z,228
2016-09-21T07:59:56.466Z,228
2016-09-21T08:00:22.089Z,220
2016-09-21T08:00:47.632Z,224
2016-09-21T08:01:14.292Z,212
2016-09-21T08:01:39.894Z,216
2016-09-21T08:02:05.442Z,216
2016-09-21T08:02:30.984Z,208
2016-09-21T08:02:56.522Z,208
2016-09-21T08:03:22.190Z,200
2016-09-21T08:03:47.803Z,220
2016-09-21T08:04:13.388Z,220
2016-09-21T08:04:38.954Z,216
2016-09-21T08:05:04.564Z,212
2016-09-21T08:05:30.118Z,208
2016-09-21T08:05:55.694Z,208
2016-09-21T08:06:21.282Z,208
2016-09-21T08:06:46.854Z,204
2016-09-21T08:07:12.427Z,204
2016-09-21T08:07:38.130Z,204
2016-09-21T08:08:03.709Z,204
2016-09-21T08:08:29.361Z,204
2016-09-21T08:08:54.978Z,204
2016-09-21T08:09:20.626Z,204
2016-09-21T08:10:44.668Z,212
2016-09-21T08:11:11.163Z,212
2016-09-21T08:11:36.831Z,212
2016-09-21T08:12:02.453Z,212
2016-09-21T08:12:28.020Z,216
2016-09-21T08:12:53.586Z,216
2016-09-21T08:13:19.369Z,216
2016-09-21T08:13:44.805Z,220
2016-09-21T08:14:10.433Z,216
2016-09-21T08:14:35.976Z,220
2016-09-21T08:15:01.634Z,220
2016-09-21T08:15:27.207Z,220
2016-09-21T08:15:52.740Z,224
2016-09-21T08:16:18.355Z,224
2016-09-21T08:16:43.883Z,224
2016-09-21T08:17:09.489Z,224
2016-09-21T08:17:35.210Z,228
2016-09-21T08:18:00.763Z,228
2016-09-21T08:18:26.342Z,232
2016-09-21T08:18:51.930Z,232
2016-09-21T08:19:17.636Z,232
2016-09-21T08:19:43.211Z,236
2016-09-21T08:20:08.766Z,236
2016-09-21T08:20:34.329Z,236
2016-09-21T08:20:59.871Z,236
2016-09-21T08:21:25.457Z,240
2016-09-21T08:21:51.008Z,236
2016-09-21T08:22:16.582Z,236
2016-09-21T08:22:42.217Z,240
2016-09-21T08:23:07.766Z,240
2016-09-21T08:23:33.358Z,240
2016-09-21T08:23:59.017Z,244
2016-09-21T08:24:24.632Z,240
2016-09-21T08:24:50.279Z,244
2016-09-21T08:25:15.830Z,244
2016-09-21T08:25:41.383Z,244
2016-09-21T08:26:06.920Z,244
2016-09-21T08:26:32.486Z,244
2016-09-21T08:26:58.268Z,244
2016-09-21T08:27:23.748Z,244
2016-09-21T08:27:49.387Z,244
2016-09-21T08:28:14.928Z,240
2016-09-21T08:28:40.527Z,244
2016-09-21T08:29:06.085Z,240
2016-09-21T08:29:31.663Z,240
2016-09-21T08:29:57.218Z,240
2016-09-21T08:30:22.800Z,240
2016-09-21T08:30:48.435Z,240
2016-09-21T08:31:14.009Z,236
2016-09-21T08:31:39.595Z,240
2016-09-21T08:32:05.158Z,236
2016-09-21T08:32:30.839Z,236
2016-09-21T08:32:56.510Z,236
2016-09-21T08:33:22.081Z,236
2016-09-21T08:33:48.639Z,232
2016-09-21T08:35:06.427Z,236
2016-09-21T08:35:32.009Z,232
2016-09-21T08:35:58.494Z,232
2016-09-21T08:36:24.040Z,232
2016-09-21T08:36:49.636Z,232
2016-09-21T08:37:15.262Z,228
2016-09-21T08:37:40.828Z,228
2016-09-21T08:38:06.454Z,228
2016-09-21T08:38:32.145Z,232
2016-09-21T08:38:57.714Z,232
2016-09-21T08:39:23.287Z,232
2016-09-21T08:39:48.962Z,232
2016-09-21T08:40:14.539Z,228
2016-09-21T08:40:40.105Z,228
2016-09-21T08:41:05.780Z,232
2016-09-21T08:41:31.349Z,228
2016-09-21T08:41:56.965Z,228
2016-09-21T08:42:22.553Z,228
2016-09-21T08:42:48.145Z,228
2016-09-21T08:43:13.771Z,224
2016-09-21T08:43:39.328Z,228
2016-09-21T08:44:04.896Z,228
2016-09-21T08:44:30.541Z,224
2016-09-21T08:44:56.124Z,224
2016-09-21T08:45:21.677Z,224
2016-09-21T08:45:47.340Z,224
2016-09-21T08:46:12.967Z,224
2016-09-21T08:46:38.636Z,224
2016-09-21T08:47:04.176Z,224
2016-09-21T08:47:29.882Z,224
2016-09-21T08:47:55.458Z,224
2016-09-21T08:48:21.072Z,224
2016-09-21T08:48:46.645Z,220
2016-09-21T08:49:12.302Z,220
2016-09-21T08:49:37.857Z,224
2016-09-21T08:50:03.395Z,220
2016-09-21T08:50:29.000Z,220
2016-09-21T08:50:54.564Z,220
2016-09-21T08:51:20.108Z,220
2016-09-21T08:51:45.670Z,224
2016-09-21T08:52:11.236Z,220
2016-09-21T08:52:36.793Z,220
2016-09-21T08:53:02.348Z,220
2016-09-21T08:53:27.994Z,220
2016-09-21T08:53:53.540Z,220
2016-09-21T08:54:19.186Z,220
2016-09-21T08:54:44.797Z,224
2016-09-21T08:55:10.350Z,224
2016-09-21T08:55:35.931Z,224
2016-09-21T08:56:01.462Z,224
2016-09-21T08:56:27.159Z,224
2016-09-21T08:56:52.702Z,224
2016-09-21T08:57:18.260Z,224
2016-09-21T08:57:43.860Z,228
2016-09-21T08:58:09.408Z,228
2016-09-21T08:58:34.996Z,224
2016-09-21T08:59:00.563Z,228
2016-09-21T08:59:26.163Z,228
2016-09-21T08:59:51.761Z,228
2016-09-21T09:01:05.309Z,228
2016-09-21T09:02:13.572Z,228
2016-09-21T09:02:39.989Z,228
2016-09-21T09:03:05.557Z,228
2016-09-21T09:03:31.194Z,228
2016-09-21T09:03:56.761Z,228
2016-09-21T09:04:22.304Z,228
2016-09-21T09:04:47.842Z,228
2016-09-21T09:05:13.408Z,228
2016-09-21T09:05:38.959Z,228
2016-09-21T09:06:04.534Z,232
2016-09-21T09:06:30.184Z,228
2016-09-21T09:06:55.740Z,228
2016-09-21T09:07:22.053Z,232
2016-09-21T09:07:47.620Z,232
2016-09-21T09:08:13.265Z,232
2016-09-21T09:08:38.903Z,232
2016-09-21T09:09:04.452Z,232
2016-09-21T09:09:30.068Z,232
2016-09-21T09:09:55.658Z,232
2016-09-21T09:10:21.213Z,236
2016-09-21T09:10:46.890Z,236
2016-09-21T09:11:12.508Z,232
2016-09-21T09:11:38.110Z,236
2016-09-21T09:12:03.680Z,236
2016-09-21T09:12:29.365Z,236
2016-09-21T09:12:55.545Z,236
2016-09-21T09:13:21.129Z,236
2016-09-21T09:13:46.684Z,236
2016-09-21T09:14:12.398Z,236
2016-09-21T09:14:37.972Z,236
2016-09-21T09:15:03.537Z,240
2016-09-21T09:15:29.259Z,240
2016-09-21T09:15:54.811Z,240
2016-09-21T09:16:20.379Z,244
2016-09-21T09:16:46.003Z,248
2016-09-21T09:17:11.634Z,248
2016-09-21T09:17:37.233Z,252
2016-09-21T09:18:02.769Z,252
2016-09-21T09:18:28.423Z,252